createdAt,value
2023-05-19T00:06:03.467Z,15.48
2023-05-19T00:16:14.805Z,21.58
2023-05-19T00:26:37.701Z,19.25
2023-05-19T00:36:42.940Z,19.60
2023-05-19T00:46:52.806Z,23.48
2023-05-19T00:57:11.987Z,17.88
2023-05-19T01:07:23.641Z,16.58
2023-05-19T01:17:54.261Z,13.68
2023-05-19T01:28:43.291Z,23.73
2023-05-19T01:38:51.778Z,19.15
2023-05-19T01:48:56.464Z,22.23
2023-05-19T01:59:10.094Z,16.80
2023-05-19T02:09:24.079Z,11.48
2023-05-19T02:19:31.451Z,15.48
2023-05-19T02:29:34.819Z,19.15
2023-05-19T02:39:39.905Z,18.45
2023-05-19T02:49:44.908Z,19.83
2023-05-19T02:59:49.720Z,21.40
2023-05-19T03:09:56.541Z,22.67
2023-05-19T03:20:01.807Z,15.83
2023-05-19T03:30:06.816Z,17.60
2023-05-19T03:40:12.542Z,17.05
2023-05-19T03:50:19.582Z,15.33
2023-05-19T04:00:25.420Z,17.88
2023-05-19T04:10:28.413Z,16.60
2023-05-19T04:20:35.309Z,17.27
2023-05-19T04:30:39.944Z,13.05
2023-05-19T04:40:44.778Z,17.30
2023-05-19T04:50:49.191Z,13.07
2023-05-19T05:00:56.164Z,12.67
2023-05-19T05:10:59.686Z,14.65
2023-05-19T05:21:05.031Z,15.23
2023-05-19T05:31:08.256Z,14.77
2023-05-19T05:41:12.960Z,16.25
2023-05-19T05:51:16.536Z,10.33
2023-05-19T06:01:22.218Z,13.68
2023-05-19T06:11:25.380Z,11.98
2023-05-19T06:21:29.855Z,12.95
2023-05-19T06:31:33.976Z,16.45
2023-05-19T06:41:38.473Z,14.75
2023-05-19T06:51:41.614Z,10.98
2023-05-19T07:01:46.164Z,13.07
2023-05-19T07:11:52.488Z,8.38
2023-05-19T07:21:57.486Z,14.80
2023-05-19T07:32:03.317Z,17.83
2023-05-19T07:42:13.272Z,8.43
2023-05-19T08:02:20.786Z,23.00
2023-05-19T08:12:23.728Z,12.82
2023-05-19T08:22:30.625Z,9.55
2023-05-19T08:32:33.659Z,10.20
2023-05-19T08:42:42.084Z,14.60
2023-05-19T08:52:53.000Z,10.07
2023-05-19T09:03:06.045Z,7.40
2023-05-19T09:13:20.334Z,14.48
2023-05-19T09:23:31.455Z,8.75
2023-05-19T09:33:35.757Z,9.52
2023-05-19T09:43:40.470Z,5.28
2023-05-19T09:53:46.702Z,10.73
2023-05-19T10:03:55.774Z,6.53
2023-05-19T10:13:59.451Z,4.40
2023-05-19T10:24:05.790Z,5.10
2023-05-19T10:34:24.078Z,8.73
2023-05-19T10:54:43.788Z,5.95
2023-05-19T11:04:58.902Z,6.03
2023-05-19T11:15:04.102Z,5.22
2023-05-19T11:25:14.659Z,6.85
2023-05-19T11:35:26.701Z,6.88
2023-05-19T11:45:34.797Z,10.38
2023-05-19T11:55:43.795Z,20.88
2023-05-19T12:05:53.683Z,8.48
2023-05-19T12:16:00.795Z,7.55
2023-05-19T12:26:06.420Z,11.23
2023-05-19T12:36:13.840Z,8.55
2023-05-19T12:46:19.829Z,4.38
2023-05-19T12:56:29.484Z,2.42
2023-05-19T13:06:36.825Z,2.38
2023-05-19T13:16:47.036Z,5.05
2023-05-19T13:26:56.174Z,1.35
2023-05-19T13:36:59.401Z,0.87
2023-05-19T13:47:04.098Z,2.35
2023-05-19T13:57:07.679Z,1.67
2023-05-19T14:07:16.117Z,1.27
2023-05-19T14:17:21.588Z,0.95
2023-05-19T14:27:26.024Z,3.67
2023-05-19T14:37:32.300Z,1.00
2023-05-19T14:47:37.494Z,4.30
2023-05-19T14:57:40.464Z,2.47
2023-05-19T15:07:45.025Z,2.95
2023-05-19T15:17:48.277Z,2.25
2023-05-19T15:28:00.754Z,1.20
2023-05-19T15:38:06.547Z,1.38
2023-05-19T15:48:13.878Z,0.95
2023-05-19T15:58:21.792Z,1.55
2023-05-19T16:08:26.275Z,2.85
2023-05-19T16:18:32.274Z,1.15
2023-05-19T16:28:39.747Z,10.52
2023-05-19T16:38:43.285Z,1.80
2023-05-19T16:48:49.021Z,2.65
2023-05-19T16:58:53.170Z,1.38
2023-05-19T17:08:59.330Z,0.88
2023-05-19T17:19:02.406Z,2.00
2023-05-19T17:29:06.906Z,11.30
2023-05-19T17:39:10.150Z,1.70
2023-05-19T17:49:16.390Z,2.63
2023-05-19T17:59:20.181Z,1.50
2023-05-19T18:09:28.867Z,2.40
2023-05-19T18:19:32.716Z,1.50
2023-05-19T18:29:37.375Z,1.80
2023-05-19T18:39:40.473Z,1.70
2023-05-19T18:49:44.971Z,1.95
2023-05-19T18:59:48.008Z,1.45
2023-05-19T19:09:55.635Z,1.55
2023-05-19T19:19:59.058Z,1.73
2023-05-19T19:30:09.448Z,1.58
2023-05-19T19:40:13.352Z,1.53
2023-05-19T19:50:22.031Z,2.83
2023-05-19T20:00:24.974Z,1.80
2023-05-19T20:10:29.564Z,2.63
2023-05-19T20:20:32.864Z,2.78
2023-05-19T20:30:37.812Z,2.08
2023-05-19T20:40:41.054Z,2.05
2023-05-19T20:50:46.190Z,1.92
2023-05-19T21:00:54.392Z,1.65
2023-05-19T21:11:00.707Z,2.50
2023-05-19T21:21:04.827Z,2.83
2023-05-19T21:31:09.591Z,2.55
2023-05-19T21:41:13.777Z,1.63
2023-05-19T21:51:18.373Z,2.65
2023-05-19T22:01:22.533Z,2.20
2023-05-19T22:11:27.499Z,1.58
2023-05-19T22:21:31.480Z,2.97
2023-05-19T22:31:36.572Z,3.22
2023-05-19T22:41:40.700Z,2.25
2023-05-19T22:51:45.184Z,1.95
2023-05-19T23:01:48.372Z,3.05
2023-05-19T23:11:54.083Z,1.52
2023-05-19T23:21:57.257Z,3.15
2023-05-19T23:32:02.099Z,4.20
2023-05-19T23:42:06.408Z,2.30
2023-05-19T23:52:11.132Z,2.22
